Central Sonoma County Latest

22 Stations

15 Minute Data | America/Los_Angeles
as of 7/21/19 10:51 AM PDT
Station Date Time Temp (°F) RH (%) Dew Pt (°F) Wind Spd (mph) Wind Dir (°) Wind Gust (mph) Latest Rain (In) Daily Rain (In) Daily Min Temp (°F) Daily Max Temp (°F)
Healdsburg - S (Sodini) 7/21/19 1045 63.6   0.1 70   1 53.8   0.4 2.2 SSW | 205 4.4   0.0 0.00 0.00 52.6   3.8 64.9   0.7
Ranch 8 (Windsor-NW) 7/21/19 1045 62.2   0.2 79   1 55.6   0.1 1.8 SSE | 149 5.8   0.7 0.00 0.00 52.1   4.3 64.4   0.9
Foothill Ranch 16 7/21/19 1045 62.4   0.3 73   3 53.7   0.8 1.8 SSW | 205 5.4   0.5 0.00 0.00 51.9   4.1 63.8   1.6
Airport Ranch 14 7/21/19 1045 63.2   1.3 70   5 53.4   0.8 1.5 SW | 226 4.3   1.1 0.00 0.00 52.0   4.5 65.4   3.1
Silk Road 7/21/19 1045 63.2   0.3 72   3 54.0   0.8 2.1 SW | 215 6.8   0.9 0.00 0.00 52.2   4.8 63.6   0.3
Oak Meadows Ranch 5 7/21/19 1045 63.0   0.5 73   4 54.1   0.8 2.2 S | 178 5.7   0.6 0.00 0.00 51.9   4.7 65.1   1.9
Laughlin Rd (Windsor-South) 7/21/19 1045 63.0   0.4 72   3 54.0   0.5 - - - 0.00 0.00 52.1   4.4 65.5   2.4
Barnes Rd (SE Fulton) 7/21/19 1045 60.2   1.1 77   1 53.2   0.7 1.9 SSW | 210 5.1   1.4 0.00 0.00 51.7   4.4 60.9   1.0
Crinella Ranch 21 7/21/19 1045 61.8   0.4 75   0 53.9   0.5 2.0 SSE | 168 5.6   0.2 0.00 0.00 51.9   4.8 64.0   1.4
Denner Ranch Base 7/21/19 1045 61.0   0.6 78   1 54.1   0.4 2.8 SE | 144 7.0   1.1 0.00 0.00 51.4   4.8 62.2   0.3
Guerneville Road (Santa Rosa Plains) 7/21/19 1045 60.8   0.3 79   0 54.3   0.4 2.6 SW | 216 5.6   1.1 0.00 0.00 52.1   5.0 61.5   0.2
Rich Ranch (Guerneville Rd) 7/21/19 1045 63.9   1.1 70   5 54.1   1.0 - - - - - 52.4   4.4 65.3   2.1
Occidental Rd (Sebastopol) 7/21/19 1045 62.4   0.3 75   1 54.3   0.1 1.9 WSW | 237 5.9   0.4 0.00 0.00 51.8   4.9 63.6   0.2
Garrison Ranch 12 7/21/19 1045 64.3   1.5 68   3 53.7   0.2 1.7 SE | 146 4.3   0.2 0.00 0.00 52.3   4.2 66.1   3.0
Laughlin Rd (Guerneville) 7/21/19 1045 65.8   2.8 68   6 55.1   0.4 2.5 SSE | 154 6.0   1.1 0.00 0.00 53.4   3.5 66.6   3.3
Korbel Winery 7/21/19 1045 64.4   2.5 70   7 54.4   0.2 2.3 WNW | 297 4.6   1.2 0.00 0.00 53.5   3.4 64.6   2.1
Shone Farms (Forestville) 7/21/19 1045 63.0   0.6 74   2 54.4   0.2 2.2 SE | 136 5.7   0.3 0.00 0.00 51.3   4.4 64.7   1.0
Ranch 30 (Forestville-NE) 7/21/19 1045 65.3   3.0 70   7 55.2   0.2 2.1 SE | 143 6.6   0.2 0.00 0.00 51.9   4.1 67.2   4.1
Dutton Ranch (Graton-West) 7/21/19 1045 64.6   3.0 76   8 56.9   0.2 2.2 ENE | 74 5.6   0.7 0.00 0.00 52.2   4.5 67.1   4.9
Mill Station Rd (Graton-South) 7/21/19 1045 59.3   1.1 85   2 54.8   0.4 2.8 SW | 222 6.0   1.4 0.00 0.00 51.2   4.7 60.3   0.3
Burnside Road (Sebastopol Hills) 7/21/19 1045 56.4   1.5 93   4 54.5   0.4 4.3 WSW | 242 6.7   1.2 0.00 0.00 49.7   4.7 57.4   0.8
Hirsch Vineyards 7/21/19 1045 59.6   3.8 81   14 53.6   0.6 3.5 W | 262 4.7   0.2 0.00 0.00 49.1   0.9 63.3   7.1
Max     65.8 93 56.9 4.3 - 7.0 0.00 0.00 53.5 67.2
Avg     62.4 75 54.3 2.3 - 5.6 0.00 - - -
Min     56.4 68 53.2 1.5 - 4.3 0.00 0.00 49.1 57.4